FDX9127 MGGT-MROC
Flight info
| Callsign | FDX9127 |
|---|---|
| Flight time | 1h 12m |
| Altitude | 37000 |
| Route | KAPAN2A KAPAN UG436 LIB BARRA3L |
| Aircraft | B752/M-SDE2E3FGHIJ3J4J7RWXY/LB1 |
Departure
| Time | 2026-04-22 13:47 |
|---|---|
| Airport | La Aurora International Airport (MGGT) |
Arrival
| Time | 2026-04-22 14:59 |
|---|---|
| Airport | Juan Santamaría International Airport (MROC) |
| Time | Latitude | Longitude | Altitude | Speed | Heading |
|---|---|---|---|---|---|
| 2026-04-22 12:55 | 14.58889 | -90.52890 | 4921 ft | 0 kts | 287° |
| 2026-04-22 13:24 | 14.58886 | -90.52880 | 4920 ft | 2 kts | 287° |
| 2026-04-22 13:24 | 14.58882 | -90.52869 | 4919 ft | 0 kts | 287° |
| 2026-04-22 13:24 | 14.58879 | -90.52856 | 4919 ft | 2 kts | 277° |
| 2026-04-22 13:25 | 14.58878 | -90.52840 | 4919 ft | 2 kts | 267° |
| 2026-04-22 13:25 | 14.58880 | -90.52824 | 4919 ft | 2 kts | 255° |
| 2026-04-22 13:25 | 14.58885 | -90.52811 | 4919 ft | 2 kts | 245° |
| 2026-04-22 13:25 | 14.58892 | -90.52797 | 4919 ft | 2 kts | 234° |
| 2026-04-22 13:26 | 14.58902 | -90.52786 | 4919 ft | 2 kts | 223° |
| 2026-04-22 13:26 | 14.58910 | -90.52779 | 4920 ft | 2 kts | 216° |
| 2026-04-22 13:26 | 14.58927 | -90.52769 | 4920 ft | 2 kts | 201° |
| 2026-04-22 13:26 | 14.58931 | -90.52767 | 4920 ft | 1 kts | 197° |
| 2026-04-22 13:27 | 14.58934 | -90.52766 | 4921 ft | 0 kts | 197° |
| 2026-04-22 13:29 | 14.58925 | -90.52769 | 4920 ft | 3 kts | 197° |
| 2026-04-22 13:29 | 14.58887 | -90.52781 | 4919 ft | 7 kts | 197° |
| 2026-04-22 13:30 | 14.58837 | -90.52785 | 4917 ft | 7 kts | 168° |
| 2026-04-22 13:30 | 14.58809 | -90.52771 | 4916 ft | 6 kts | 143° |
| 2026-04-22 13:30 | 14.58792 | -90.52737 | 4916 ft | 4 kts | 108° |
| 2026-04-22 13:31 | 14.58744 | -90.52683 | 4915 ft | 3 kts | 188° |
| 2026-04-22 13:31 | 14.58711 | -90.52692 | 4915 ft | 5 kts | 198° |
| 2026-04-22 13:31 | 14.58667 | -90.52707 | 4913 ft | 7 kts | 198° |
| 2026-04-22 13:32 | 14.58610 | -90.52724 | 4911 ft | 9 kts | 196° |
| 2026-04-22 13:32 | 14.58541 | -90.52747 | 4908 ft | 11 kts | 198° |
| 2026-04-22 13:32 | 14.58461 | -90.52773 | 4904 ft | 12 kts | 197° |
| 2026-04-22 13:32 | 14.58366 | -90.52802 | 4898 ft | 16 kts | 196° |
| 2026-04-22 13:33 | 14.58249 | -90.52840 | 4892 ft | 18 kts | 197° |
| 2026-04-22 13:33 | 14.58121 | -90.52882 | 4888 ft | 19 kts | 197° |
| 2026-04-22 13:33 | 14.57995 | -90.52923 | 4888 ft | 18 kts | 197° |
| 2026-04-22 13:33 | 14.57880 | -90.52959 | 4888 ft | 16 kts | 196° |
| 2026-04-22 13:34 | 14.57773 | -90.52994 | 4889 ft | 14 kts | 197° |
| 2026-04-22 13:34 | 14.57690 | -90.53020 | 4892 ft | 10 kts | 197° |
| 2026-04-22 13:34 | 14.57631 | -90.53040 | 4893 ft | 7 kts | 197° |
| 2026-04-22 13:34 | 14.57585 | -90.53055 | 4894 ft | 6 kts | 197° |
| 2026-04-22 13:35 | 14.57558 | -90.53063 | 4894 ft | 5 kts | 197° |
| 2026-04-22 13:35 | 14.57522 | -90.53075 | 4895 ft | 5 kts | 197° |
| 2026-04-22 13:35 | 14.57511 | -90.53078 | 4895 ft | 5 kts | 197° |
| 2026-04-22 13:35 | 14.57462 | -90.53095 | 4895 ft | 6 kts | 197° |
| 2026-04-22 13:36 | 14.57391 | -90.53117 | 4895 ft | 6 kts | 197° |
| 2026-04-22 13:36 | 14.57347 | -90.53132 | 4894 ft | 6 kts | 197° |
| 2026-04-22 13:36 | 14.57237 | -90.53167 | 4890 ft | 10 kts | 195° |
| 2026-04-22 13:37 | 14.57174 | -90.53187 | 4888 ft | 0 kts | 197° |
| 2026-04-22 13:38 | 14.57165 | -90.53190 | 4887 ft | 3 kts | 198° |
| 2026-04-22 13:38 | 14.57127 | -90.53202 | 4886 ft | 6 kts | 198° |
| 2026-04-22 13:39 | 14.57086 | -90.53207 | 4885 ft | 3 kts | 159° |
| 2026-04-22 13:39 | 14.57079 | -90.53198 | 4885 ft | 0 kts | 111° |
| 2026-04-22 13:44 | 14.57077 | -90.53193 | 4886 ft | 1 kts | 111° |
| 2026-04-22 13:44 | 14.57071 | -90.53176 | 4886 ft | 2 kts | 111° |
| 2026-04-22 13:44 | 14.57068 | -90.53165 | 4886 ft | 0 kts | 90° |
| 2026-04-22 13:45 | 14.57069 | -90.53159 | 4886 ft | 0 kts | 84° |
| 2026-04-22 13:45 | 14.57069 | -90.53158 | 4886 ft | 0 kts | 84° |
| 2026-04-22 13:45 | 14.57069 | -90.53155 | 4887 ft | 0 kts | 79° |
| 2026-04-22 13:46 | 14.57073 | -90.53151 | 4887 ft | 1 kts | 47° |
| 2026-04-22 13:46 | 14.57087 | -90.53146 | 4887 ft | 5 kts | 17° |
| 2026-04-22 13:46 | 14.57144 | -90.53127 | 4889 ft | 17 kts | 17° |
| 2026-04-22 13:46 | 14.57418 | -90.53039 | 4896 ft | 67 kts | 17° |
| 2026-04-22 13:47 | 14.58055 | -90.52839 | 4890 ft | 123 kts | 17° |
| 2026-04-22 13:47 | 14.59042 | -90.52512 | 4942 ft | 174 kts | 18° |
| 2026-04-22 13:47 | 14.60277 | -90.52053 | 5317 ft | 202 kts | 18° |
| 2026-04-22 13:47 | 14.61802 | -90.51786 | 5751 ft | 242 kts | 6° |
| 2026-04-22 13:48 | 14.63541 | -90.51588 | 6390 ft | 255 kts | 6° |
| 2026-04-22 13:48 | 14.65216 | -90.51381 | 7446 ft | 240 kts | 18° |
| 2026-04-22 13:48 | 14.66608 | -90.50462 | 8115 ft | 242 kts | 49° |
| 2026-04-22 13:48 | 14.67402 | -90.48856 | 8375 ft | 266 kts | 79° |
| 2026-04-22 13:49 | 14.67317 | -90.46906 | 8751 ft | 286 kts | 107° |
| 2026-04-22 13:49 | 14.66363 | -90.45112 | 9464 ft | 291 kts | 124° |
| 2026-04-22 13:49 | 14.65186 | -90.43419 | 10196 ft | 294 kts | 123° |
| 2026-04-22 13:49 | 14.63962 | -90.41627 | 10566 ft | 313 kts | 124° |
| 2026-04-22 13:50 | 14.63120 | -90.40395 | 10771 ft | 326 kts | 124° |
| 2026-04-22 13:50 | 14.61310 | -90.37747 | 11449 ft | 343 kts | 124° |
| 2026-04-22 13:50 | 14.59932 | -90.35730 | 12186 ft | 346 kts | 124° |
| 2026-04-22 13:50 | 14.58543 | -90.33697 | 12852 ft | 350 kts | 124° |
| 2026-04-22 13:51 | 14.57140 | -90.31644 | 13506 ft | 354 kts | 124° |
| 2026-04-22 13:51 | 14.55714 | -90.29557 | 14157 ft | 357 kts | 124° |
| 2026-04-22 13:51 | 14.54258 | -90.27461 | 14773 ft | 360 kts | 128° |
| 2026-04-22 13:51 | 14.52540 | -90.25608 | 15360 ft | 364 kts | 139° |
| 2026-04-22 13:52 | 14.50492 | -90.24048 | 15937 ft | 368 kts | 146° |
| 2026-04-22 13:52 | 14.48274 | -90.22659 | 16475 ft | 371 kts | 149° |
| 2026-04-22 13:52 | 14.45994 | -90.21380 | 17003 ft | 374 kts | 151° |
| 2026-04-22 13:52 | 14.43676 | -90.20156 | 17515 ft | 376 kts | 152° |
| 2026-04-22 13:53 | 14.41301 | -90.18951 | 17990 ft | 380 kts | 153° |
| 2026-04-22 13:53 | 14.38904 | -90.17762 | 18475 ft | 383 kts | 153° |
| 2026-04-22 13:53 | 14.36498 | -90.16585 | 18956 ft | 387 kts | 154° |
| 2026-04-22 13:53 | 14.34057 | -90.15398 | 19467 ft | 389 kts | 154° |
| 2026-04-22 13:54 | 14.31582 | -90.14201 | 19956 ft | 392 kts | 154° |
| 2026-04-22 13:54 | 14.29112 | -90.13009 | 20443 ft | 394 kts | 154° |
| 2026-04-22 13:54 | 14.26612 | -90.11804 | 20898 ft | 397 kts | 154° |
| 2026-04-22 13:54 | 14.24081 | -90.10584 | 21376 ft | 399 kts | 154° |
| 2026-04-22 13:55 | 14.21582 | -90.09341 | 21817 ft | 402 kts | 150° |
| 2026-04-22 13:55 | 14.19266 | -90.07729 | 22235 ft | 404 kts | 139° |
| 2026-04-22 13:55 | 14.17257 | -90.05659 | 22681 ft | 405 kts | 128° |
| 2026-04-22 13:55 | 14.15673 | -90.03257 | 23076 ft | 409 kts | 117° |
| 2026-04-22 13:56 | 14.14448 | -90.00593 | 23486 ft | 412 kts | 116° |
| 2026-04-22 13:56 | 14.13074 | -89.98008 | 23940 ft | 415 kts | 121° |
| 2026-04-22 13:56 | 14.11493 | -89.95499 | 24322 ft | 419 kts | 124° |
| 2026-04-22 13:56 | 14.09817 | -89.93053 | 24770 ft | 421 kts | 126° |
| 2026-04-22 13:57 | 14.08075 | -89.90622 | 25206 ft | 424 kts | 127° |
| 2026-04-22 13:57 | 14.06280 | -89.88181 | 25636 ft | 427 kts | 128° |
| 2026-04-22 13:57 | 14.04442 | -89.85743 | 26045 ft | 429 kts | 129° |
| 2026-04-22 13:57 | 14.02590 | -89.83360 | 26431 ft | 432 kts | 129° |
| 2026-04-22 13:58 | 14.00695 | -89.80933 | 26791 ft | 435 kts | 129° |
| 2026-04-22 13:58 | 13.98783 | -89.78490 | 27148 ft | 438 kts | 129° |
| 2026-04-22 13:58 | 13.96871 | -89.76052 | 27472 ft | 441 kts | 130° |
| 2026-04-22 13:58 | 13.94929 | -89.73579 | 27827 ft | 444 kts | 130° |
| 2026-04-22 13:59 | 13.93000 | -89.71125 | 28145 ft | 446 kts | 130° |
| 2026-04-22 13:59 | 13.91035 | -89.68628 | 28483 ft | 448 kts | 130° |
| 2026-04-22 13:59 | 13.89070 | -89.66131 | 28817 ft | 451 kts | 130° |
| 2026-04-22 13:59 | 13.87069 | -89.63590 | 29143 ft | 453 kts | 130° |
| 2026-04-22 14:00 | 13.85082 | -89.61066 | 29485 ft | 454 kts | 130° |
| 2026-04-22 14:00 | 13.83105 | -89.58559 | 29811 ft | 456 kts | 130° |
| 2026-04-22 14:00 | 13.81114 | -89.56032 | 30087 ft | 458 kts | 130° |
| 2026-04-22 14:00 | 13.79082 | -89.53455 | 30397 ft | 460 kts | 130° |
| 2026-04-22 14:01 | 13.77067 | -89.50899 | 30652 ft | 462 kts | 130° |
| 2026-04-22 14:01 | 13.75041 | -89.48332 | 30913 ft | 464 kts | 130° |
| 2026-04-22 14:01 | 13.73011 | -89.45760 | 31171 ft | 465 kts | 130° |
| 2026-04-22 14:01 | 13.70973 | -89.43177 | 31574 ft | 463 kts | 130° |
| 2026-04-22 14:02 | 13.68932 | -89.40591 | 31938 ft | 462 kts | 130° |
| 2026-04-22 14:02 | 13.66905 | -89.38024 | 32281 ft | 461 kts | 130° |
| 2026-04-22 14:02 | 13.64897 | -89.35482 | 32630 ft | 460 kts | 130° |
| 2026-04-22 14:02 | 13.62913 | -89.32971 | 32964 ft | 459 kts | 130° |
| 2026-04-22 14:03 | 13.60916 | -89.30446 | 33098 ft | 456 kts | 130° |
| 2026-04-22 14:03 | 13.58911 | -89.27909 | 33085 ft | 456 kts | 130° |
| 2026-04-22 14:03 | 13.54909 | -89.22852 | 33063 ft | 457 kts | 130° |
| 2026-04-22 14:04 | 13.50903 | -89.17790 | 33031 ft | 456 kts | 130° |
| 2026-04-22 14:04 | 13.46898 | -89.12733 | 33020 ft | 456 kts | 130° |
| 2026-04-22 14:05 | 13.42898 | -89.07683 | 33008 ft | 456 kts | 130° |
| 2026-04-22 14:06 | 13.36920 | -89.00091 | 32999 ft | 456 kts | 130° |
| 2026-04-22 14:06 | 13.32939 | -88.95038 | 32991 ft | 456 kts | 130° |
| 2026-04-22 14:07 | 13.28939 | -88.89965 | 32990 ft | 456 kts | 130° |
| 2026-04-22 14:07 | 13.24927 | -88.84879 | 32997 ft | 456 kts | 130° |
| 2026-04-22 14:08 | 13.20936 | -88.79823 | 32992 ft | 457 kts | 130° |
| 2026-04-22 14:08 | 13.16945 | -88.74770 | 32995 ft | 455 kts | 130° |
| 2026-04-22 14:09 | 13.12949 | -88.69713 | 32995 ft | 455 kts | 130° |
| 2026-04-22 14:09 | 13.08968 | -88.64679 | 32991 ft | 455 kts | 130° |
| 2026-04-22 14:10 | 13.04970 | -88.59626 | 32986 ft | 455 kts | 130° |
| 2026-04-22 14:10 | 13.00993 | -88.54601 | 32991 ft | 455 kts | 130° |
| 2026-04-22 14:11 | 12.96993 | -88.49553 | 32988 ft | 455 kts | 130° |
| 2026-04-22 14:11 | 12.92998 | -88.44510 | 32986 ft | 455 kts | 130° |
| 2026-04-22 14:12 | 12.89016 | -88.39489 | 32987 ft | 455 kts | 130° |
| 2026-04-22 14:12 | 12.85010 | -88.34441 | 32987 ft | 456 kts | 130° |
| 2026-04-22 14:13 | 12.81018 | -88.29411 | 32984 ft | 455 kts | 130° |
| 2026-04-22 14:13 | 12.77021 | -88.24379 | 32987 ft | 455 kts | 130° |
| 2026-04-22 14:14 | 12.73028 | -88.19355 | 32987 ft | 455 kts | 130° |
| 2026-04-22 14:14 | 12.69032 | -88.14329 | 32987 ft | 455 kts | 130° |
| 2026-04-22 14:15 | 12.65050 | -88.09325 | 32987 ft | 454 kts | 130° |
| 2026-04-22 14:15 | 12.61054 | -88.04305 | 32987 ft | 455 kts | 130° |
| 2026-04-22 14:16 | 12.57050 | -87.99278 | 32988 ft | 455 kts | 130° |
| 2026-04-22 14:16 | 12.53052 | -87.94266 | 32986 ft | 455 kts | 130° |
| 2026-04-22 14:17 | 12.49046 | -87.89248 | 32982 ft | 455 kts | 130° |
| 2026-04-22 14:17 | 12.45054 | -87.84249 | 32977 ft | 455 kts | 130° |
| 2026-04-22 14:18 | 12.41057 | -87.79246 | 32975 ft | 455 kts | 130° |
| 2026-04-22 14:18 | 12.37048 | -87.74232 | 32971 ft | 454 kts | 130° |
| 2026-04-22 14:19 | 12.33062 | -87.69250 | 32972 ft | 454 kts | 130° |
| 2026-04-22 14:19 | 12.29051 | -87.64238 | 32969 ft | 454 kts | 130° |
| 2026-04-22 14:20 | 12.23066 | -87.56765 | 32969 ft | 454 kts | 130° |
| 2026-04-22 14:20 | 12.19051 | -87.51756 | 32970 ft | 454 kts | 130° |
| 2026-04-22 14:21 | 12.13039 | -87.44259 | 32969 ft | 454 kts | 130° |
| 2026-04-22 14:22 | 12.07046 | -87.36792 | 32969 ft | 453 kts | 130° |
| 2026-04-22 14:23 | 12.01042 | -87.29318 | 32969 ft | 453 kts | 130° |
| 2026-04-22 14:23 | 11.97087 | -87.24397 | 32965 ft | 454 kts | 130° |
| 2026-04-22 14:24 | 11.93051 | -87.19378 | 32967 ft | 455 kts | 130° |
| 2026-04-22 14:24 | 11.89048 | -87.14402 | 32968 ft | 455 kts | 130° |
| 2026-04-22 14:25 | 11.85030 | -87.09410 | 32964 ft | 456 kts | 130° |
| 2026-04-22 14:25 | 11.81022 | -87.04435 | 32968 ft | 454 kts | 129° |
| 2026-04-22 14:26 | 11.77001 | -86.99445 | 32968 ft | 454 kts | 130° |
| 2026-04-22 14:26 | 11.72975 | -86.94451 | 32965 ft | 453 kts | 130° |
| 2026-04-22 14:27 | 11.68960 | -86.89475 | 32969 ft | 454 kts | 130° |
| 2026-04-22 14:27 | 11.64931 | -86.84485 | 32970 ft | 455 kts | 130° |
| 2026-04-22 14:28 | 11.60919 | -86.79516 | 32967 ft | 456 kts | 130° |
| 2026-04-22 14:28 | 11.56876 | -86.74513 | 32973 ft | 455 kts | 130° |
| 2026-04-22 14:29 | 11.52866 | -86.69552 | 32971 ft | 455 kts | 130° |
| 2026-04-22 14:29 | 11.49176 | -86.64990 | 32972 ft | 455 kts | 130° |
| 2026-04-22 14:30 | 11.45145 | -86.60008 | 32972 ft | 454 kts | 130° |
| 2026-04-22 14:30 | 11.41110 | -86.55024 | 32979 ft | 455 kts | 130° |
| 2026-04-22 14:31 | 11.37089 | -86.50060 | 32980 ft | 455 kts | 130° |
| 2026-04-22 14:31 | 11.33067 | -86.45097 | 32979 ft | 456 kts | 130° |
| 2026-04-22 14:32 | 11.29013 | -86.40097 | 32987 ft | 455 kts | 130° |
| 2026-04-22 14:32 | 11.24972 | -86.35115 | 32987 ft | 455 kts | 130° |
| 2026-04-22 14:33 | 11.20942 | -86.30149 | 32985 ft | 454 kts | 130° |
| 2026-04-22 14:33 | 11.16926 | -86.25202 | 32988 ft | 454 kts | 130° |
| 2026-04-22 14:34 | 11.12871 | -86.20210 | 32988 ft | 454 kts | 130° |
| 2026-04-22 14:34 | 11.08853 | -86.15267 | 32988 ft | 454 kts | 130° |
| 2026-04-22 14:35 | 11.04798 | -86.10280 | 32984 ft | 454 kts | 131° |
| 2026-04-22 14:35 | 11.00784 | -86.05347 | 32986 ft | 453 kts | 130° |
| 2026-04-22 14:36 | 10.96738 | -86.00375 | 32985 ft | 451 kts | 130° |
| 2026-04-22 14:36 | 10.92718 | -85.95439 | 32984 ft | 452 kts | 130° |
| 2026-04-22 14:37 | 10.88746 | -85.90562 | 32985 ft | 452 kts | 131° |
| 2026-04-22 14:37 | 10.84717 | -85.85724 | 32987 ft | 441 kts | 132° |
| 2026-04-22 14:38 | 10.80767 | -85.81059 | 32956 ft | 430 kts | 132° |
| 2026-04-22 14:38 | 10.78797 | -85.78737 | 32563 ft | 440 kts | 132° |
| 2026-04-22 14:38 | 10.76791 | -85.76362 | 32017 ft | 444 kts | 131° |
| 2026-04-22 14:38 | 10.74853 | -85.73948 | 31481 ft | 440 kts | 130° |
| 2026-04-22 14:39 | 10.72953 | -85.71568 | 31001 ft | 435 kts | 130° |
| 2026-04-22 14:39 | 10.71044 | -85.69182 | 30523 ft | 431 kts | 130° |
| 2026-04-22 14:39 | 10.69157 | -85.66824 | 30047 ft | 429 kts | 130° |
| 2026-04-22 14:40 | 10.66021 | -85.62908 | 29259 ft | 426 kts | 129° |
| 2026-04-22 14:40 | 10.63539 | -85.59808 | 28633 ft | 421 kts | 129° |
| 2026-04-22 14:40 | 10.61704 | -85.57519 | 28169 ft | 416 kts | 129° |
| 2026-04-22 14:40 | 10.59934 | -85.55208 | 27700 ft | 412 kts | 123° |
| 2026-04-22 14:41 | 10.58516 | -85.52671 | 27245 ft | 410 kts | 116° |
| 2026-04-22 14:41 | 10.57237 | -85.50063 | 26792 ft | 408 kts | 116° |
| 2026-04-22 14:41 | 10.55988 | -85.47522 | 26345 ft | 406 kts | 116° |
| 2026-04-22 14:41 | 10.54725 | -85.44936 | 25892 ft | 403 kts | 116° |
| 2026-04-22 14:42 | 10.53485 | -85.42384 | 25442 ft | 399 kts | 115° |
| 2026-04-22 14:42 | 10.52277 | -85.39897 | 25006 ft | 396 kts | 115° |
| 2026-04-22 14:42 | 10.51055 | -85.37376 | 24566 ft | 394 kts | 115° |
| 2026-04-22 14:42 | 10.49843 | -85.34875 | 24133 ft | 392 kts | 115° |
| 2026-04-22 14:43 | 10.48644 | -85.32402 | 23706 ft | 391 kts | 115° |
| 2026-04-22 14:43 | 10.47444 | -85.29926 | 23279 ft | 388 kts | 115° |
| 2026-04-22 14:43 | 10.46249 | -85.27460 | 22851 ft | 386 kts | 115° |
| 2026-04-22 14:43 | 10.45072 | -85.25032 | 22432 ft | 383 kts | 114° |
| 2026-04-22 14:44 | 10.43905 | -85.22623 | 22023 ft | 380 kts | 114° |
| 2026-04-22 14:44 | 10.42741 | -85.20223 | 21619 ft | 378 kts | 114° |
| 2026-04-22 14:44 | 10.41582 | -85.17834 | 21216 ft | 376 kts | 114° |
| 2026-04-22 14:44 | 10.40427 | -85.15454 | 20810 ft | 373 kts | 114° |
| 2026-04-22 14:45 | 10.39273 | -85.13076 | 20401 ft | 370 kts | 114° |
| 2026-04-22 14:45 | 10.38141 | -85.10744 | 20001 ft | 367 kts | 114° |
| 2026-04-22 14:45 | 10.37012 | -85.08418 | 19601 ft | 365 kts | 114° |
| 2026-04-22 14:45 | 10.35897 | -85.06122 | 19165 ft | 363 kts | 114° |
| 2026-04-22 14:46 | 10.34793 | -85.03848 | 18732 ft | 360 kts | 114° |
| 2026-04-22 14:46 | 10.33688 | -85.01574 | 18318 ft | 357 kts | 114° |
| 2026-04-22 14:46 | 10.32589 | -84.99312 | 17903 ft | 353 kts | 114° |
| 2026-04-22 14:46 | 10.31504 | -84.97081 | 17519 ft | 350 kts | 114° |
| 2026-04-22 14:47 | 10.30438 | -84.94885 | 17150 ft | 348 kts | 114° |
| 2026-04-22 14:47 | 10.29358 | -84.92664 | 16776 ft | 347 kts | 114° |
| 2026-04-22 14:47 | 10.28292 | -84.90472 | 16380 ft | 346 kts | 114° |
| 2026-04-22 14:47 | 10.27230 | -84.88290 | 16004 ft | 343 kts | 114° |
| 2026-04-22 14:48 | 10.26173 | -84.86117 | 15626 ft | 340 kts | 114° |
| 2026-04-22 14:48 | 10.25139 | -84.83991 | 15261 ft | 337 kts | 114° |
| 2026-04-22 14:48 | 10.24090 | -84.81837 | 14891 ft | 334 kts | 114° |
| 2026-04-22 14:48 | 10.23072 | -84.79745 | 14533 ft | 332 kts | 114° |
| 2026-04-22 14:49 | 10.22043 | -84.77631 | 14163 ft | 330 kts | 114° |
| 2026-04-22 14:49 | 10.21025 | -84.75540 | 13794 ft | 329 kts | 114° |
| 2026-04-22 14:49 | 10.20014 | -84.73464 | 13392 ft | 327 kts | 114° |
| 2026-04-22 14:49 | 10.19020 | -84.71424 | 13018 ft | 324 kts | 114° |
| 2026-04-22 14:50 | 10.18020 | -84.69372 | 12641 ft | 321 kts | 114° |
| 2026-04-22 14:50 | 10.17044 | -84.67369 | 12318 ft | 318 kts | 114° |
| 2026-04-22 14:50 | 10.16066 | -84.65363 | 12198 ft | 307 kts | 114° |
| 2026-04-22 14:50 | 10.15055 | -84.63519 | 12144 ft | 294 kts | 125° |
| 2026-04-22 14:51 | 10.13568 | -84.62087 | 12042 ft | 297 kts | 142° |
| 2026-04-22 14:51 | 10.11778 | -84.60922 | 11584 ft | 310 kts | 145° |
| 2026-04-22 14:51 | 10.09961 | -84.59772 | 11102 ft | 311 kts | 146° |
| 2026-04-22 14:51 | 10.08094 | -84.58612 | 10566 ft | 313 kts | 146° |
| 2026-04-22 14:52 | 10.06273 | -84.57495 | 10425 ft | 301 kts | 146° |
| 2026-04-22 14:52 | 10.04468 | -84.56392 | 10023 ft | 300 kts | 146° |
| 2026-04-22 14:52 | 10.02690 | -84.55313 | 9987 ft | 285 kts | 146° |
| 2026-04-22 14:52 | 10.01035 | -84.54311 | 9966 ft | 270 kts | 146° |
| 2026-04-22 14:53 | 9.99462 | -84.53359 | 10000 ft | 253 kts | 146° |
| 2026-04-22 14:53 | 9.97972 | -84.52455 | 9896 ft | 246 kts | 146° |
| 2026-04-22 14:53 | 9.96484 | -84.51552 | 9570 ft | 249 kts | 147° |
| 2026-04-22 14:53 | 9.95004 | -84.50655 | 9259 ft | 250 kts | 146° |
| 2026-04-22 14:54 | 9.93484 | -84.49734 | 8914 ft | 251 kts | 146° |
| 2026-04-22 14:54 | 9.91981 | -84.48811 | 8514 ft | 253 kts | 142° |
| 2026-04-22 14:54 | 9.90816 | -84.47514 | 8112 ft | 251 kts | 113° |
| 2026-04-22 14:54 | 9.90316 | -84.45831 | 7800 ft | 247 kts | 91° |
| 2026-04-22 14:55 | 9.90637 | -84.44174 | 7538 ft | 243 kts | 68° |
| 2026-04-22 14:55 | 9.91260 | -84.42570 | 7207 ft | 244 kts | 69° |
| 2026-04-22 14:55 | 9.91861 | -84.40949 | 6873 ft | 244 kts | 69° |
| 2026-04-22 14:55 | 9.92465 | -84.39333 | 6542 ft | 245 kts | 69° |
| 2026-04-22 14:56 | 9.93067 | -84.37726 | 6214 ft | 246 kts | 69° |
| 2026-04-22 14:56 | 9.93679 | -84.36095 | 5883 ft | 246 kts | 69° |
| 2026-04-22 14:56 | 9.94284 | -84.34480 | 5556 ft | 247 kts | 69° |
| 2026-04-22 14:56 | 9.94886 | -84.32855 | 5236 ft | 247 kts | 69° |
| 2026-04-22 14:57 | 9.95496 | -84.31226 | 4941 ft | 244 kts | 69° |
| 2026-04-22 14:57 | 9.96089 | -84.29646 | 4601 ft | 231 kts | 69° |
| 2026-04-22 14:57 | 9.96633 | -84.28204 | 4330 ft | 210 kts | 68° |
| 2026-04-22 14:57 | 9.97125 | -84.26897 | 4073 ft | 188 kts | 69° |
| 2026-04-22 14:58 | 9.97572 | -84.25705 | 3809 ft | 171 kts | 69° |
| 2026-04-22 14:58 | 9.97973 | -84.24641 | 3588 ft | 153 kts | 69° |
| 2026-04-22 14:58 | 9.98328 | -84.23696 | 3393 ft | 136 kts | 68° |
| 2026-04-22 14:58 | 9.98661 | -84.22812 | 3255 ft | 135 kts | 68° |
| 2026-04-22 14:59 | 9.99019 | -84.21864 | 3117 ft | 151 kts | 68° |
| 2026-04-22 14:59 | 9.99383 | -84.20927 | 3099 ft | 118 kts | 76° |
| 2026-04-22 14:59 | 9.99595 | -84.20318 | 3100 ft | 75 kts | 68° |
| 2026-04-22 14:59 | 9.99721 | -84.20026 | 3101 ft | 0 kts | 60° |
| 2026-04-22 15:00 | 9.99721 | -84.20024 | 3101 ft | 1 kts | 59° |
| 2026-04-22 15:00 | 9.99733 | -84.20006 | 3101 ft | 3 kts | 53° |
| 2026-04-22 15:00 | 9.99752 | -84.19988 | 3101 ft | 2 kts | 34° |
| 2026-04-22 15:00 | 9.99769 | -84.19984 | 3101 ft | 3 kts | 359° |
| 2026-04-22 15:01 | 9.99791 | -84.19995 | 3101 ft | 3 kts | 316° |
| 2026-04-22 15:01 | 9.99802 | -84.20019 | 3101 ft | 2 kts | 281° |
| 2026-04-22 15:01 | 9.99802 | -84.20036 | 3101 ft | 3 kts | 262° |
| 2026-04-22 15:01 | 9.99794 | -84.20064 | 3101 ft | 5 kts | 249° |
| 2026-04-22 15:02 | 9.99779 | -84.20103 | 3100 ft | 6 kts | 249° |
| 2026-04-22 15:02 | 9.99763 | -84.20145 | 3100 ft | 6 kts | 249° |
| 2026-04-22 15:02 | 9.99746 | -84.20190 | 3100 ft | 6 kts | 249° |
| 2026-04-22 15:02 | 9.99729 | -84.20236 | 3100 ft | 6 kts | 249° |
| 2026-04-22 15:03 | 9.99711 | -84.20282 | 3100 ft | 7 kts | 249° |
| 2026-04-22 15:03 | 9.99694 | -84.20328 | 3100 ft | 7 kts | 249° |
| 2026-04-22 15:03 | 9.99677 | -84.20374 | 3100 ft | 7 kts | 249° |
| 2026-04-22 15:03 | 9.99659 | -84.20421 | 3100 ft | 7 kts | 249° |
| 2026-04-22 15:04 | 9.99642 | -84.20467 | 3100 ft | 7 kts | 249° |
| 2026-04-22 15:04 | 9.99625 | -84.20513 | 3100 ft | 7 kts | 250° |
| 2026-04-22 15:04 | 9.99608 | -84.20560 | 3099 ft | 7 kts | 250° |
| 2026-04-22 15:04 | 9.99591 | -84.20606 | 3099 ft | 6 kts | 249° |
| 2026-04-22 15:05 | 9.99574 | -84.20652 | 3099 ft | 6 kts | 249° |
| 2026-04-22 15:05 | 9.99556 | -84.20697 | 3099 ft | 6 kts | 248° |
| 2026-04-22 15:05 | 9.99539 | -84.20744 | 3099 ft | 6 kts | 250° |
| 2026-04-22 15:05 | 9.99522 | -84.20789 | 3099 ft | 6 kts | 249° |
| 2026-04-22 15:06 | 9.99510 | -84.20819 | 3099 ft | 6 kts | 249° |
| 2026-04-22 15:06 | 9.99488 | -84.20879 | 3099 ft | 6 kts | 255° |
| 2026-04-22 15:06 | 9.99495 | -84.20913 | 3098 ft | 4 kts | 310° |
| 2026-04-22 15:06 | 9.99521 | -84.20931 | 3099 ft | 4 kts | 335° |
| 2026-04-22 15:07 | 9.99552 | -84.20948 | 3098 ft | 4 kts | 316° |
| 2026-04-22 15:07 | 9.99569 | -84.20976 | 3098 ft | 5 kts | 297° |
| 2026-04-22 15:07 | 9.99589 | -84.20996 | 3098 ft | 3 kts | 335° |
| 2026-04-22 15:07 | 9.99618 | -84.21008 | 3098 ft | 4 kts | 340° |
| 2026-04-22 15:08 | 9.99636 | -84.21014 | 3098 ft | 0 kts | 339° |